sensor_id;sensor_type;location;lat;lon;timestamp;P1;durP1;ratioP1;P2;durP2;ratioP2
6551;SDS011;3309;48.708;9.290;2022-08-26T00:00:49;0.30;;;0.30;;
6551;SDS011;3309;48.708;9.290;2022-08-26T00:03:16;0.30;;;0.30;;
6551;SDS011;3309;48.708;9.290;2022-08-26T00:05:43;0.40;;;0.40;;
6551;SDS011;3309;48.708;9.290;2022-08-26T00:08:11;0.40;;;0.40;;
6551;SDS011;3309;48.708;9.290;2022-08-26T00:10:38;0.30;;;0.30;;
6551;SDS011;3309;48.708;9.290;2022-08-26T00:13:04;0.30;;;0.30;;
6551;SDS011;3309;48.708;9.290;2022-08-26T00:15:30;0.30;;;0.30;;
6551;SDS011;3309;48.708;9.290;2022-08-26T00:17:57;0.30;;;0.30;;
6551;SDS011;3309;48.708;9.290;2022-08-26T00:20:26;0.37;;;0.37;;
6551;SDS011;3309;48.708;9.290;2022-08-26T00:22:54;0.30;;;0.30;;
6551;SDS011;3309;48.708;9.290;2022-08-26T00:25:20;0.30;;;0.30;;
6551;SDS011;3309;48.708;9.290;2022-08-26T00:27:46;0.30;;;0.30;;
6551;SDS011;3309;48.708;9.290;2022-08-26T00:30:13;0.50;;;0.50;;
6551;SDS011;3309;48.708;9.290;2022-08-26T00:32:41;0.30;;;0.30;;
6551;SDS011;3309;48.708;9.290;2022-08-26T00:35:07;0.33;;;0.33;;
6551;SDS011;3309;48.708;9.290;2022-08-26T00:37:34;0.40;;;0.40;;
6551;SDS011;3309;48.708;9.290;2022-08-26T00:39:59;0.40;;;0.40;;
6551;SDS011;3309;48.708;9.290;2022-08-26T00:42:25;0.40;;;0.40;;
6551;SDS011;3309;48.708;9.290;2022-08-26T00:44:51;0.40;;;0.40;;
6551;SDS011;3309;48.708;9.290;2022-08-26T00:47:27;0.40;;;0.40;;
6551;SDS011;3309;48.708;9.290;2022-08-26T00:49:57;0.37;;;0.37;;
6551;SDS011;3309;48.708;9.290;2022-08-26T00:52:26;0.40;;;0.40;;
6551;SDS011;3309;48.708;9.290;2022-08-26T00:54:54;0.33;;;0.33;;
6551;SDS011;3309;48.708;9.290;2022-08-26T00:57:26;0.30;;;0.30;;
6551;SDS011;3309;48.708;9.290;2022-08-26T00:59:56;0.30;;;0.30;;
6551;SDS011;3309;48.708;9.290;2022-08-26T01:02:24;0.30;;;0.30;;
6551;SDS011;3309;48.708;9.290;2022-08-26T01:04:52;0.40;;;0.40;;
6551;SDS011;3309;48.708;9.290;2022-08-26T01:07:20;0.40;;;0.40;;
6551;SDS011;3309;48.708;9.290;2022-08-26T01:09:47;0.30;;;0.30;;
6551;SDS011;3309;48.708;9.290;2022-08-26T01:12:13;0.40;;;0.40;;
6551;SDS011;3309;48.708;9.290;2022-08-26T01:14:38;0.40;;;0.40;;
6551;SDS011;3309;48.708;9.290;2022-08-26T01:17:05;0.40;;;0.40;;
6551;SDS011;3309;48.708;9.290;2022-08-26T01:19:34;0.40;;;0.40;;
6551;SDS011;3309;48.708;9.290;2022-08-26T01:22:13;0.50;;;0.50;;
6551;SDS011;3309;48.708;9.290;2022-08-26T01:24:50;0.50;;;0.50;;
6551;SDS011;3309;48.708;9.290;2022-08-26T01:27:16;0.40;;;0.40;;
6551;SDS011;3309;48.708;9.290;2022-08-26T01:29:45;0.50;;;0.50;;
6551;SDS011;3309;48.708;9.290;2022-08-26T01:32:13;0.40;;;0.40;;
6551;SDS011;3309;48.708;9.290;2022-08-26T01:34:43;0.40;;;0.40;;
6551;SDS011;3309;48.708;9.290;2022-08-26T01:39:41;0.30;;;0.30;;
6551;SDS011;3309;48.708;9.290;2022-08-26T01:42:09;0.40;;;0.40;;
6551;SDS011;3309;48.708;9.290;2022-08-26T01:44:48;0.50;;;0.50;;
6551;SDS011;3309;48.708;9.290;2022-08-26T01:47:20;0.40;;;0.40;;
6551;SDS011;3309;48.708;9.290;2022-08-26T01:49:48;0.40;;;0.40;;
6551;SDS011;3309;48.708;9.290;2022-08-26T01:52:15;0.40;;;0.40;;
6551;SDS011;3309;48.708;9.290;2022-08-26T01:54:46;0.33;;;0.33;;
6551;SDS011;3309;48.708;9.290;2022-08-26T01:57:13;0.40;;;0.40;;
6551;SDS011;3309;48.708;9.290;2022-08-26T01:59:40;0.40;;;0.40;;
6551;SDS011;3309;48.708;9.290;2022-08-26T02:02:05;0.30;;;0.30;;
6551;SDS011;3309;48.708;9.290;2022-08-26T02:04:35;0.40;;;0.40;;
6551;SDS011;3309;48.708;9.290;2022-08-26T02:07:05;0.40;;;0.40;;
6551;SDS011;3309;48.708;9.290;2022-08-26T02:09:35;0.33;;;0.33;;
6551;SDS011;3309;48.708;9.290;2022-08-26T02:12:02;0.40;;;0.40;;
6551;SDS011;3309;48.708;9.290;2022-08-26T02:14:29;0.40;;;0.40;;
6551;SDS011;3309;48.708;9.290;2022-08-26T02:16:59;0.50;;;0.50;;
6551;SDS011;3309;48.708;9.290;2022-08-26T02:19:30;0.50;;;0.50;;
6551;SDS011;3309;48.708;9.290;2022-08-26T02:21:59;0.40;;;0.40;;
6551;SDS011;3309;48.708;9.290;2022-08-26T02:24:29;0.40;;;0.40;;
6551;SDS011;3309;48.708;9.290;2022-08-26T02:27:11;0.37;;;0.37;;
6551;SDS011;3309;48.708;9.290;2022-08-26T02:29:38;0.40;;;0.40;;
6551;SDS011;3309;48.708;9.290;2022-08-26T02:32:08;0.40;;;0.40;;
6551;SDS011;3309;48.708;9.290;2022-08-26T02:34:34;0.40;;;0.40;;
6551;SDS011;3309;48.708;9.290;2022-08-26T02:37:02;0.40;;;0.40;;
6551;SDS011;3309;48.708;9.290;2022-08-26T02:39:33;0.43;;;0.43;;
6551;SDS011;3309;48.708;9.290;2022-08-26T02:41:59;0.30;;;0.30;;
6551;SDS011;3309;48.708;9.290;2022-08-26T02:44:25;0.33;;;0.33;;
6551;SDS011;3309;48.708;9.290;2022-08-26T02:46:51;0.30;;;0.30;;
6551;SDS011;3309;48.708;9.290;2022-08-26T02:49:18;0.30;;;0.30;;
6551;SDS011;3309;48.708;9.290;2022-08-26T02:51:44;0.30;;;0.30;;
6551;SDS011;3309;48.708;9.290;2022-08-26T02:54:10;0.40;;;0.40;;
6551;SDS011;3309;48.708;9.290;2022-08-26T02:56:36;0.40;;;0.40;;
6551;SDS011;3309;48.708;9.290;2022-08-26T02:59:02;0.30;;;0.30;;
6551;SDS011;3309;48.708;9.290;2022-08-26T03:01:30;0.40;;;0.40;;
6551;SDS011;3309;48.708;9.290;2022-08-26T03:03:58;0.30;;;0.30;;
6551;SDS011;3309;48.708;9.290;2022-08-26T03:06:25;0.50;;;0.50;;
6551;SDS011;3309;48.708;9.290;2022-08-26T03:08:51;0.40;;;0.40;;
6551;SDS011;3309;48.708;9.290;2022-08-26T03:11:17;0.47;;;0.47;;
6551;SDS011;3309;48.708;9.290;2022-08-26T03:13:43;0.30;;;0.30;;
6551;SDS011;3309;48.708;9.290;2022-08-26T03:16:09;0.40;;;0.40;;
6551;SDS011;3309;48.708;9.290;2022-08-26T03:18:35;0.50;;;0.50;;
6551;SDS011;3309;48.708;9.290;2022-08-26T03:21:07;0.30;;;0.30;;
6551;SDS011;3309;48.708;9.290;2022-08-26T03:23:35;0.47;;;0.47;;
6551;SDS011;3309;48.708;9.290;2022-08-26T03:26:02;0.50;;;0.50;;
6551;SDS011;3309;48.708;9.290;2022-08-26T03:28:29;0.40;;;0.40;;
6551;SDS011;3309;48.708;9.290;2022-08-26T03:30:55;0.30;;;0.30;;
6551;SDS011;3309;48.708;9.290;2022-08-26T03:33:21;0.30;;;0.30;;
6551;SDS011;3309;48.708;9.290;2022-08-26T03:35:48;0.40;;;0.40;;
6551;SDS011;3309;48.708;9.290;2022-08-26T03:38:16;0.43;;;0.43;;
6551;SDS011;3309;48.708;9.290;2022-08-26T03:40:46;0.40;;;0.40;;
6551;SDS011;3309;48.708;9.290;2022-08-26T03:43:12;0.40;;;0.40;;
6551;SDS011;3309;48.708;9.290;2022-08-26T03:45:40;0.30;;;0.30;;
6551;SDS011;3309;48.708;9.290;2022-08-26T03:48:06;0.50;;;0.50;;
6551;SDS011;3309;48.708;9.290;2022-08-26T03:50:31;0.47;;;0.47;;
6551;SDS011;3309;48.708;9.290;2022-08-26T03:52:57;0.47;;;0.47;;
6551;SDS011;3309;48.708;9.290;2022-08-26T03:55:24;0.50;;;0.50;;
6551;SDS011;3309;48.708;9.290;2022-08-26T03:57:51;0.50;;;0.50;;
6551;SDS011;3309;48.708;9.290;2022-08-26T04:00:17;0.40;;;0.40;;
6551;SDS011;3309;48.708;9.290;2022-08-26T04:02:44;0.50;;;0.50;;
6551;SDS011;3309;48.708;9.290;2022-08-26T04:05:13;0.30;;;0.30;;
6551;SDS011;3309;48.708;9.290;2022-08-26T04:07:39;0.30;;;0.30;;
6551;SDS011;3309;48.708;9.290;2022-08-26T04:10:07;0.40;;;0.40;;
6551;SDS011;3309;48.708;9.290;2022-08-26T04:12:35;0.40;;;0.40;;
6551;SDS011;3309;48.708;9.290;2022-08-26T04:15:03;0.40;;;0.40;;
6551;SDS011;3309;48.708;9.290;2022-08-26T04:17:30;0.40;;;0.40;;
6551;SDS011;3309;48.708;9.290;2022-08-26T04:19:56;0.30;;;0.30;;
6551;SDS011;3309;48.708;9.290;2022-08-26T04:22:21;0.40;;;0.40;;
6551;SDS011;3309;48.708;9.290;2022-08-26T04:24:47;0.40;;;0.40;;
6551;SDS011;3309;48.708;9.290;2022-08-26T04:27:12;0.30;;;0.30;;
6551;SDS011;3309;48.708;9.290;2022-08-26T04:29:38;0.30;;;0.30;;
6551;SDS011;3309;48.708;9.290;2022-08-26T04:32:05;0.40;;;0.40;;
6551;SDS011;3309;48.708;9.290;2022-08-26T04:34:33;0.40;;;0.40;;
6551;SDS011;3309;48.708;9.290;2022-08-26T04:36:59;0.50;;;0.50;;
6551;SDS011;3309;48.708;9.290;2022-08-26T04:39:25;0.50;;;0.50;;
6551;SDS011;3309;48.708;9.290;2022-08-26T04:41:51;0.40;;;0.40;;
6551;SDS011;3309;48.708;9.290;2022-08-26T04:44:21;0.40;;;0.40;;
6551;SDS011;3309;48.708;9.290;2022-08-26T04:46:48;0.40;;;0.40;;
6551;SDS011;3309;48.708;9.290;2022-08-26T04:49:14;0.50;;;0.50;;
6551;SDS011;3309;48.708;9.290;2022-08-26T04:51:39;0.40;;;0.40;;
6551;SDS011;3309;48.708;9.290;2022-08-26T04:54:05;0.40;;;0.40;;
6551;SDS011;3309;48.708;9.290;2022-08-26T04:56:32;0.40;;;0.40;;
6551;SDS011;3309;48.708;9.290;2022-08-26T04:59:00;0.40;;;0.40;;
6551;SDS011;3309;48.708;9.290;2022-08-26T05:01:27;0.40;;;0.40;;
6551;SDS011;3309;48.708;9.290;2022-08-26T05:03:55;0.30;;;0.30;;
6551;SDS011;3309;48.708;9.290;2022-08-26T05:06:21;0.40;;;0.40;;
6551;SDS011;3309;48.708;9.290;2022-08-26T05:08:46;0.40;;;0.40;;
6551;SDS011;3309;48.708;9.290;2022-08-26T05:11:12;0.40;;;0.40;;
6551;SDS011;3309;48.708;9.290;2022-08-26T05:13:38;0.50;;;0.50;;
6551;SDS011;3309;48.708;9.290;2022-08-26T05:16:05;0.40;;;0.40;;
6551;SDS011;3309;48.708;9.290;2022-08-26T05:18:32;0.33;;;0.33;;
6551;SDS011;3309;48.708;9.290;2022-08-26T05:20:58;0.37;;;0.37;;
6551;SDS011;3309;48.708;9.290;2022-08-26T05:23:26;0.50;;;0.50;;
6551;SDS011;3309;48.708;9.290;2022-08-26T05:25:53;0.30;;;0.30;;
6551;SDS011;3309;48.708;9.290;2022-08-26T05:28:19;0.30;;;0.30;;
6551;SDS011;3309;48.708;9.290;2022-08-26T05:30:45;0.30;;;0.30;;
6551;SDS011;3309;48.708;9.290;2022-08-26T05:33:12;0.50;;;0.50;;
6551;SDS011;3309;48.708;9.290;2022-08-26T05:35:38;0.33;;;0.33;;
6551;SDS011;3309;48.708;9.290;2022-08-26T05:38:06;0.30;;;0.30;;
6551;SDS011;3309;48.708;9.290;2022-08-26T05:40:38;0.40;;;0.40;;
6551;SDS011;3309;48.708;9.290;2022-08-26T05:43:05;0.30;;;0.30;;
6551;SDS011;3309;48.708;9.290;2022-08-26T05:45:37;0.30;;;0.30;;
6551;SDS011;3309;48.708;9.290;2022-08-26T05:48:26;0.40;;;0.40;;
6551;SDS011;3309;48.708;9.290;2022-08-26T05:50:51;0.40;;;0.40;;
6551;SDS011;3309;48.708;9.290;2022-08-26T05:53:18;0.40;;;0.40;;
6551;SDS011;3309;48.708;9.290;2022-08-26T05:55:48;0.30;;;0.30;;
6551;SDS011;3309;48.708;9.290;2022-08-26T05:58:17;0.30;;;0.30;;
6551;SDS011;3309;48.708;9.290;2022-08-26T06:00:45;0.40;;;0.40;;
6551;SDS011;3309;48.708;9.290;2022-08-26T06:03:19;0.40;;;0.40;;
6551;SDS011;3309;48.708;9.290;2022-08-26T06:05:45;0.40;;;0.40;;
6551;SDS011;3309;48.708;9.290;2022-08-26T06:08:10;0.40;;;0.40;;
6551;SDS011;3309;48.708;9.290;2022-08-26T06:13:11;0.50;;;0.50;;
6551;SDS011;3309;48.708;9.290;2022-08-26T06:15:38;0.40;;;0.40;;
6551;SDS011;3309;48.708;9.290;2022-08-26T06:18:12;0.43;;;0.43;;
6551;SDS011;3309;48.708;9.290;2022-08-26T06:20:39;0.50;;;0.50;;
6551;SDS011;3309;48.708;9.290;2022-08-26T06:23:09;0.30;;;0.30;;
6551;SDS011;3309;48.708;9.290;2022-08-26T06:26:02;0.37;;;0.37;;
6551;SDS011;3309;48.708;9.290;2022-08-26T06:28:29;0.40;;;0.40;;
6551;SDS011;3309;48.708;9.290;2022-08-26T06:30:54;0.47;;;0.47;;
6551;SDS011;3309;48.708;9.290;2022-08-26T06:33:21;0.30;;;0.30;;
6551;SDS011;3309;48.708;9.290;2022-08-26T06:35:47;0.40;;;0.40;;
6551;SDS011;3309;48.708;9.290;2022-08-26T06:38:14;0.30;;;0.30;;
6551;SDS011;3309;48.708;9.290;2022-08-26T06:40:45;0.30;;;0.30;;
6551;SDS011;3309;48.708;9.290;2022-08-26T06:43:13;0.40;;;0.40;;
6551;SDS011;3309;48.708;9.290;2022-08-26T06:45:46;0.30;;;0.30;;
6551;SDS011;3309;48.708;9.290;2022-08-26T06:48:13;0.30;;;0.30;;
6551;SDS011;3309;48.708;9.290;2022-08-26T06:50:41;0.37;;;0.37;;
6551;SDS011;3309;48.708;9.290;2022-08-26T06:53:08;0.40;;;0.40;;
6551;SDS011;3309;48.708;9.290;2022-08-26T06:55:38;0.40;;;0.40;;
6551;SDS011;3309;48.708;9.290;2022-08-26T06:58:04;0.40;;;0.40;;
6551;SDS011;3309;48.708;9.290;2022-08-26T07:00:31;0.40;;;0.40;;
6551;SDS011;3309;48.708;9.290;2022-08-26T07:02:57;0.40;;;0.40;;
6551;SDS011;3309;48.708;9.290;2022-08-26T07:05:22;0.40;;;0.40;;
6551;SDS011;3309;48.708;9.290;2022-08-26T07:07:49;0.40;;;0.40;;
6551;SDS011;3309;48.708;9.290;2022-08-26T07:10:16;0.40;;;0.40;;
6551;SDS011;3309;48.708;9.290;2022-08-26T07:12:42;0.30;;;0.30;;
6551;SDS011;3309;48.708;9.290;2022-08-26T07:15:08;0.30;;;0.30;;
6551;SDS011;3309;48.708;9.290;2022-08-26T07:17:34;0.30;;;0.30;;
6551;SDS011;3309;48.708;9.290;2022-08-26T07:20:00;0.30;;;0.30;;
6551;SDS011;3309;48.708;9.290;2022-08-26T07:22:27;0.30;;;0.30;;
6551;SDS011;3309;48.708;9.290;2022-08-26T07:24:52;0.40;;;0.40;;
6551;SDS011;3309;48.708;9.290;2022-08-26T07:27:18;0.30;;;0.30;;
6551;SDS011;3309;48.708;9.290;2022-08-26T07:29:44;0.40;;;0.40;;
6551;SDS011;3309;48.708;9.290;2022-08-26T07:32:12;0.40;;;0.40;;
6551;SDS011;3309;48.708;9.290;2022-08-26T07:34:39;0.30;;;0.30;;
6551;SDS011;3309;48.708;9.290;2022-08-26T07:37:05;0.40;;;0.40;;
6551;SDS011;3309;48.708;9.290;2022-08-26T07:39:31;0.40;;;0.40;;
6551;SDS011;3309;48.708;9.290;2022-08-26T07:41:57;0.40;;;0.40;;
6551;SDS011;3309;48.708;9.290;2022-08-26T07:44:23;0.40;;;0.40;;
6551;SDS011;3309;48.708;9.290;2022-08-26T07:46:51;0.50;;;0.50;;
6551;SDS011;3309;48.708;9.290;2022-08-26T07:49:16;0.30;;;0.30;;
6551;SDS011;3309;48.708;9.290;2022-08-26T07:51:43;0.47;;;0.47;;
6551;SDS011;3309;48.708;9.290;2022-08-26T07:54:09;0.47;;;0.47;;
6551;SDS011;3309;48.708;9.290;2022-08-26T07:56:35;0.50;;;0.50;;
6551;SDS011;3309;48.708;9.290;2022-08-26T07:59:00;0.50;;;0.50;;
6551;SDS011;3309;48.708;9.290;2022-08-26T08:01:26;0.30;;;0.30;;
6551;SDS011;3309;48.708;9.290;2022-08-26T08:03:53;0.50;;;0.50;;
6551;SDS011;3309;48.708;9.290;2022-08-26T08:06:20;0.37;;;0.37;;
6551;SDS011;3309;48.708;9.290;2022-08-26T08:08:47;0.47;;;0.47;;
6551;SDS011;3309;48.708;9.290;2022-08-26T08:11:13;0.50;;;0.50;;
6551;SDS011;3309;48.708;9.290;2022-08-26T08:13:39;0.50;;;0.50;;
6551;SDS011;3309;48.708;9.290;2022-08-26T08:16:05;0.50;;;0.50;;
6551;SDS011;3309;48.708;9.290;2022-08-26T08:18:31;0.50;;;0.50;;
6551;SDS011;3309;48.708;9.290;2022-08-26T08:20:57;0.43;;;0.43;;
6551;SDS011;3309;48.708;9.290;2022-08-26T08:23:25;0.47;;;0.47;;
6551;SDS011;3309;48.708;9.290;2022-08-26T08:25:58;0.40;;;0.40;;
6551;SDS011;3309;48.708;9.290;2022-08-26T08:28:31;0.40;;;0.40;;
6551;SDS011;3309;48.708;9.290;2022-08-26T08:30:58;0.40;;;0.40;;
6551;SDS011;3309;48.708;9.290;2022-08-26T08:33:23;0.40;;;0.40;;
6551;SDS011;3309;48.708;9.290;2022-08-26T08:35:50;0.40;;;0.40;;
6551;SDS011;3309;48.708;9.290;2022-08-26T08:38:16;0.40;;;0.40;;
6551;SDS011;3309;48.708;9.290;2022-08-26T08:40:43;0.33;;;0.33;;
6551;SDS011;3309;48.708;9.290;2022-08-26T08:43:31;0.40;;;0.40;;
6551;SDS011;3309;48.708;9.290;2022-08-26T08:46:09;0.60;;;0.60;;
6551;SDS011;3309;48.708;9.290;2022-08-26T08:48:39;0.50;;;0.50;;
6551;SDS011;3309;48.708;9.290;2022-08-26T08:53:44;0.50;;;0.50;;
6551;SDS011;3309;48.708;9.290;2022-08-26T08:58:54;0.40;;;0.40;;
6551;SDS011;3309;48.708;9.290;2022-08-26T09:07:08;0.40;;;0.40;;
6551;SDS011;3309;48.708;9.290;2022-08-26T09:09:38;0.40;;;0.40;;
6551;SDS011;3309;48.708;9.290;2022-08-26T09:12:10;0.30;;;0.30;;
6551;SDS011;3309;48.708;9.290;2022-08-26T09:14:41;0.20;;;0.20;;
6551;SDS011;3309;48.708;9.290;2022-08-26T09:23:02;0.10;;;0.10;;
6551;SDS011;3309;48.708;9.290;2022-08-26T09:25:27;0.15;;;0.15;;
6551;SDS011;3309;48.708;9.290;2022-08-26T09:27:53;0.20;;;0.20;;
6551;SDS011;3309;48.708;9.290;2022-08-26T09:30:26;0.10;;;0.10;;
6551;SDS011;3309;48.708;9.290;2022-08-26T09:35:27;0.10;;;0.10;;
6551;SDS011;3309;48.708;9.290;2022-08-26T09:38:01;0.10;;;0.10;;
6551;SDS011;3309;48.708;9.290;2022-08-26T09:40:28;0.10;;;0.10;;
6551;SDS011;3309;48.708;9.290;2022-08-26T09:43:09;0.10;;;0.10;;
6551;SDS011;3309;48.708;9.290;2022-08-26T09:45:38;0.20;;;0.20;;
6551;SDS011;3309;48.708;9.290;2022-08-26T09:48:05;0.03;;;0.03;;
6551;SDS011;3309;48.708;9.290;2022-08-26T09:50:39;0.10;;;0.10;;
6551;SDS011;3309;48.708;9.290;2022-08-26T09:53:23;0.20;;;0.20;;
6551;SDS011;3309;48.708;9.290;2022-08-26T09:56:09;0.20;;;0.20;;
6551;SDS011;3309;48.708;9.290;2022-08-26T09:58:47;0.25;;;0.25;;
6551;SDS011;3309;48.708;9.290;2022-08-26T10:01:14;0.20;;;0.20;;
6551;SDS011;3309;48.708;9.290;2022-08-26T10:04:02;0.30;;;0.30;;
6551;SDS011;3309;48.708;9.290;2022-08-26T10:06:42;0.20;;;0.20;;
6551;SDS011;3309;48.708;9.290;2022-08-26T10:09:22;0.28;;;0.28;;
6551;SDS011;3309;48.708;9.290;2022-08-26T10:11:54;0.20;;;0.20;;
6551;SDS011;3309;48.708;9.290;2022-08-26T10:17:08;0.10;;;0.10;;
6551;SDS011;3309;48.708;9.290;2022-08-26T10:22:21;0.00;;;0.00;;
6551;SDS011;3309;48.708;9.290;2022-08-26T10:24:53;0.20;;;0.20;;
6551;SDS011;3309;48.708;9.290;2022-08-26T10:30:21;0.10;;;0.10;;
6551;SDS011;3309;48.708;9.290;2022-08-26T10:32:53;0.30;;;0.30;;
6551;SDS011;3309;48.708;9.290;2022-08-26T10:35:21;0.20;;;0.20;;
6551;SDS011;3309;48.708;9.290;2022-08-26T10:37:51;0.10;;;0.10;;
6551;SDS011;3309;48.708;9.290;2022-08-26T10:40:24;0.00;;;0.00;;
6551;SDS011;3309;48.708;9.290;2022-08-26T10:43:14;0.10;;;0.10;;
6551;SDS011;3309;48.708;9.290;2022-08-26T10:45:52;0.17;;;0.17;;
6551;SDS011;3309;48.708;9.290;2022-08-26T10:48:27;0.20;;;0.20;;
6551;SDS011;3309;48.708;9.290;2022-08-26T10:50:58;0.10;;;0.10;;
6551;SDS011;3309;48.708;9.290;2022-08-26T10:59:23;0.10;;;0.10;;
6551;SDS011;3309;48.708;9.290;2022-08-26T11:04:38;0.10;;;0.10;;
6551;SDS011;3309;48.708;9.290;2022-08-26T11:20:32;0.10;;;0.10;;
6551;SDS011;3309;48.708;9.290;2022-08-26T11:28:31;0.20;;;0.20;;
6551;SDS011;3309;48.708;9.290;2022-08-26T11:31:04;0.10;;;0.10;;
6551;SDS011;3309;48.708;9.290;2022-08-26T11:40:12;0.20;;;0.20;;
6551;SDS011;3309;48.708;9.290;2022-08-26T11:42:21;0.20;;;0.20;;
6551;SDS011;3309;48.708;9.290;2022-08-26T11:44:53;0.20;;;0.20;;
6551;SDS011;3309;48.708;9.290;2022-08-26T11:47:29;0.10;;;0.10;;
6551;SDS011;3309;48.708;9.290;2022-08-26T11:50:12;0.15;;;0.15;;
6551;SDS011;3309;48.708;9.290;2022-08-26T11:52:57;0.30;;;0.30;;
6551;SDS011;3309;48.708;9.290;2022-08-26T11:55:33;0.13;;;0.13;;
6551;SDS011;3309;48.708;9.290;2022-08-26T11:58:05;0.20;;;0.20;;
6551;SDS011;3309;48.708;9.290;2022-08-26T12:00:51;0.35;;;0.35;;
6551;SDS011;3309;48.708;9.290;2022-08-26T12:03:21;0.40;;;0.40;;
6551;SDS011;3309;48.708;9.290;2022-08-26T12:05:50;0.35;;;0.35;;
6551;SDS011;3309;48.708;9.290;2022-08-26T12:08:18;0.30;;;0.30;;
6551;SDS011;3309;48.708;9.290;2022-08-26T12:10:46;0.50;;;0.50;;
6551;SDS011;3309;48.708;9.290;2022-08-26T12:13:23;0.50;;;0.50;;
6551;SDS011;3309;48.708;9.290;2022-08-26T12:15:56;0.60;;;0.60;;
6551;SDS011;3309;48.708;9.290;2022-08-26T12:18:25;0.50;;;0.50;;
6551;SDS011;3309;48.708;9.290;2022-08-26T12:20:54;0.60;;;0.60;;
6551;SDS011;3309;48.708;9.290;2022-08-26T12:23:24;0.50;;;0.50;;
6551;SDS011;3309;48.708;9.290;2022-08-26T12:25:51;0.40;;;0.40;;
6551;SDS011;3309;48.708;9.290;2022-08-26T12:28:26;0.50;;;0.50;;
6551;SDS011;3309;48.708;9.290;2022-08-26T12:31:03;0.60;;;0.60;;
6551;SDS011;3309;48.708;9.290;2022-08-26T12:33:30;0.50;;;0.50;;
6551;SDS011;3309;48.708;9.290;2022-08-26T12:35:58;0.60;;;0.60;;
6551;SDS011;3309;48.708;9.290;2022-08-26T12:38:25;0.40;;;0.40;;
6551;SDS011;3309;48.708;9.290;2022-08-26T12:40:52;0.40;;;0.40;;
6551;SDS011;3309;48.708;9.290;2022-08-26T12:43:39;0.50;;;0.50;;
6551;SDS011;3309;48.708;9.290;2022-08-26T12:46:07;0.63;;;0.63;;
6551;SDS011;3309;48.708;9.290;2022-08-26T12:48:39;0.67;;;0.67;;
6551;SDS011;3309;48.708;9.290;2022-08-26T12:51:11;0.40;;;0.40;;
6551;SDS011;3309;48.708;9.290;2022-08-26T12:53:46;0.50;;;0.50;;
6551;SDS011;3309;48.708;9.290;2022-08-26T12:59:24;0.60;;;0.60;;
6551;SDS011;3309;48.708;9.290;2022-08-26T13:01:50;0.47;;;0.47;;
6551;SDS011;3309;48.708;9.290;2022-08-26T13:04:30;0.60;;;0.60;;
6551;SDS011;3309;48.708;9.290;2022-08-26T13:07:11;0.53;;;0.53;;
6551;SDS011;3309;48.708;9.290;2022-08-26T13:09:49;0.50;;;0.50;;
6551;SDS011;3309;48.708;9.290;2022-08-26T13:12:23;0.60;;;0.60;;
6551;SDS011;3309;48.708;9.290;2022-08-26T13:14:50;0.60;;;0.60;;
6551;SDS011;3309;48.708;9.290;2022-08-26T13:17:15;0.60;;;0.60;;
6551;SDS011;3309;48.708;9.290;2022-08-26T13:19:41;0.55;;;0.55;;
6551;SDS011;3309;48.708;9.290;2022-08-26T13:22:06;0.60;;;0.60;;
6551;SDS011;3309;48.708;9.290;2022-08-26T13:24:37;0.40;;;0.40;;
6551;SDS011;3309;48.708;9.290;2022-08-26T13:27:05;0.68;;;0.68;;
6551;SDS011;3309;48.708;9.290;2022-08-26T13:29:32;0.60;;;0.60;;
6551;SDS011;3309;48.708;9.290;2022-08-26T13:31:58;0.60;;;0.60;;
6551;SDS011;3309;48.708;9.290;2022-08-26T13:34:24;0.50;;;0.50;;
6551;SDS011;3309;48.708;9.290;2022-08-26T13:36:51;0.60;;;0.60;;
6551;SDS011;3309;48.708;9.290;2022-08-26T13:39:18;0.60;;;0.60;;
6551;SDS011;3309;48.708;9.290;2022-08-26T13:41:44;0.40;;;0.40;;
6551;SDS011;3309;48.708;9.290;2022-08-26T13:44:10;0.50;;;0.50;;
6551;SDS011;3309;48.708;9.290;2022-08-26T13:46:36;0.50;;;0.50;;
6551;SDS011;3309;48.708;9.290;2022-08-26T13:49:02;0.50;;;0.50;;
6551;SDS011;3309;48.708;9.290;2022-08-26T13:51:28;0.40;;;0.40;;
6551;SDS011;3309;48.708;9.290;2022-08-26T13:53:54;0.50;;;0.50;;
6551;SDS011;3309;48.708;9.290;2022-08-26T13:56:21;0.50;;;0.50;;
6551;SDS011;3309;48.708;9.290;2022-08-26T13:58:47;0.40;;;0.40;;
6551;SDS011;3309;48.708;9.290;2022-08-26T14:01:13;0.30;;;0.30;;
6551;SDS011;3309;48.708;9.290;2022-08-26T14:03:40;0.33;;;0.33;;
6551;SDS011;3309;48.708;9.290;2022-08-26T14:06:06;0.50;;;0.50;;
6551;SDS011;3309;48.708;9.290;2022-08-26T14:08:32;0.60;;;0.60;;
6551;SDS011;3309;48.708;9.290;2022-08-26T14:10:58;0.33;;;0.33;;
6551;SDS011;3309;48.708;9.290;2022-08-26T14:13:24;0.30;;;0.30;;
6551;SDS011;3309;48.708;9.290;2022-08-26T14:15:50;0.43;;;0.43;;
6551;SDS011;3309;48.708;9.290;2022-08-26T14:18:17;0.40;;;0.40;;
6551;SDS011;3309;48.708;9.290;2022-08-26T14:20:47;0.40;;;0.40;;
6551;SDS011;3309;48.708;9.290;2022-08-26T14:23:14;0.40;;;0.40;;
6551;SDS011;3309;48.708;9.290;2022-08-26T14:25:41;0.40;;;0.40;;
6551;SDS011;3309;48.708;9.290;2022-08-26T14:28:07;0.43;;;0.43;;
6551;SDS011;3309;48.708;9.290;2022-08-26T14:30:32;0.40;;;0.40;;
6551;SDS011;3309;48.708;9.290;2022-08-26T14:32:58;0.47;;;0.47;;
6551;SDS011;3309;48.708;9.290;2022-08-26T14:35:25;0.40;;;0.40;;
6551;SDS011;3309;48.708;9.290;2022-08-26T14:37:53;0.40;;;0.40;;
6551;SDS011;3309;48.708;9.290;2022-08-26T14:40:19;0.50;;;0.50;;
6551;SDS011;3309;48.708;9.290;2022-08-26T14:42:50;0.33;;;0.33;;
6551;SDS011;3309;48.708;9.290;2022-08-26T14:45:19;0.30;;;0.30;;
6551;SDS011;3309;48.708;9.290;2022-08-26T14:47:47;0.30;;;0.30;;
6551;SDS011;3309;48.708;9.290;2022-08-26T14:50:15;0.40;;;0.40;;
6551;SDS011;3309;48.708;9.290;2022-08-26T14:52:42;0.33;;;0.33;;
6551;SDS011;3309;48.708;9.290;2022-08-26T14:55:27;0.40;;;0.40;;
6551;SDS011;3309;48.708;9.290;2022-08-26T14:57:54;0.40;;;0.40;;
6551;SDS011;3309;48.708;9.290;2022-08-26T15:00:20;0.30;;;0.30;;
6551;SDS011;3309;48.708;9.290;2022-08-26T15:02:45;0.30;;;0.30;;
6551;SDS011;3309;48.708;9.290;2022-08-26T15:05:11;0.40;;;0.40;;
6551;SDS011;3309;48.708;9.290;2022-08-26T15:07:40;0.40;;;0.40;;
6551;SDS011;3309;48.708;9.290;2022-08-26T15:10:07;0.50;;;0.50;;
6551;SDS011;3309;48.708;9.290;2022-08-26T15:12:35;0.40;;;0.40;;
6551;SDS011;3309;48.708;9.290;2022-08-26T15:15:01;0.40;;;0.40;;
6551;SDS011;3309;48.708;9.290;2022-08-26T15:17:28;0.40;;;0.40;;
6551;SDS011;3309;48.708;9.290;2022-08-26T15:19:53;0.37;;;0.37;;
6551;SDS011;3309;48.708;9.290;2022-08-26T15:22:19;0.20;;;0.20;;
6551;SDS011;3309;48.708;9.290;2022-08-26T15:24:44;0.50;;;0.50;;
6551;SDS011;3309;48.708;9.290;2022-08-26T15:27:10;0.40;;;0.40;;
6551;SDS011;3309;48.708;9.290;2022-08-26T15:29:36;0.30;;;0.30;;
6551;SDS011;3309;48.708;9.290;2022-08-26T15:32:02;0.50;;;0.50;;
6551;SDS011;3309;48.708;9.290;2022-08-26T15:34:28;0.30;;;0.30;;
6551;SDS011;3309;48.708;9.290;2022-08-26T15:36:54;0.37;;;0.37;;
6551;SDS011;3309;48.708;9.290;2022-08-26T15:39:19;0.30;;;0.30;;
6551;SDS011;3309;48.708;9.290;2022-08-26T15:41:45;0.50;;;0.50;;
6551;SDS011;3309;48.708;9.290;2022-08-26T15:44:11;0.40;;;0.40;;
6551;SDS011;3309;48.708;9.290;2022-08-26T15:46:38;0.40;;;0.40;;
6551;SDS011;3309;48.708;9.290;2022-08-26T15:49:04;0.30;;;0.30;;
6551;SDS011;3309;48.708;9.290;2022-08-26T15:51:31;0.40;;;0.40;;
6551;SDS011;3309;48.708;9.290;2022-08-26T15:54:00;0.30;;;0.30;;
6551;SDS011;3309;48.708;9.290;2022-08-26T15:56:29;0.40;;;0.40;;
6551;SDS011;3309;48.708;9.290;2022-08-26T15:58:56;0.40;;;0.40;;
6551;SDS011;3309;48.708;9.290;2022-08-26T16:01:23;0.50;;;0.50;;
6551;SDS011;3309;48.708;9.290;2022-08-26T16:03:50;0.37;;;0.37;;
6551;SDS011;3309;48.708;9.290;2022-08-26T16:06:17;0.40;;;0.40;;
6551;SDS011;3309;48.708;9.290;2022-08-26T16:08:45;0.50;;;0.50;;
6551;SDS011;3309;48.708;9.290;2022-08-26T16:13:40;0.53;;;0.53;;
6551;SDS011;3309;48.708;9.290;2022-08-26T16:16:06;0.30;;;0.30;;
6551;SDS011;3309;48.708;9.290;2022-08-26T16:18:32;0.40;;;0.40;;
6551;SDS011;3309;48.708;9.290;2022-08-26T16:20:58;0.30;;;0.30;;
6551;SDS011;3309;48.708;9.290;2022-08-26T16:23:23;0.50;;;0.50;;
6551;SDS011;3309;48.708;9.290;2022-08-26T16:25:49;0.30;;;0.30;;
6551;SDS011;3309;48.708;9.290;2022-08-26T16:28:15;0.40;;;0.40;;
6551;SDS011;3309;48.708;9.290;2022-08-26T16:30:41;0.50;;;0.50;;
6551;SDS011;3309;48.708;9.290;2022-08-26T16:33:08;0.30;;;0.30;;
6551;SDS011;3309;48.708;9.290;2022-08-26T16:35:35;0.40;;;0.40;;